createdAt,value
2024-04-30T00:02:30.666Z,14.73
2024-04-30T00:04:59.855Z,14.66
2024-04-30T00:07:26.664Z,14.69
2024-04-30T00:09:57.720Z,14.34
2024-04-30T00:12:27.894Z,14.60
2024-04-30T00:15:01.388Z,14.69
2024-04-30T00:17:38.080Z,14.71
2024-04-30T00:20:08.289Z,14.67
2024-04-30T00:22:42.011Z,14.54
2024-04-30T00:25:09.280Z,14.68
2024-04-30T00:27:42.676Z,14.30
2024-04-30T00:30:13.062Z,14.61
2024-04-30T00:32:45.805Z,14.70
2024-04-30T00:35:14.046Z,14.78
2024-04-30T00:37:44.209Z,14.70
2024-04-30T00:40:14.599Z,14.84
2024-04-30T00:42:54.418Z,14.87
2024-04-30T00:45:25.628Z,14.76
2024-04-30T00:47:58.898Z,14.85
2024-04-30T00:50:45.591Z,15.00
2024-04-30T00:53:15.680Z,14.88
2024-04-30T00:55:45.578Z,14.89
2024-04-30T00:58:28.424Z,14.60
2024-04-30T01:01:00.872Z,14.67
2024-04-30T01:03:35.777Z,14.65
2024-04-30T01:06:12.394Z,14.66
2024-04-30T01:08:44.636Z,14.75
2024-04-30T01:11:15.944Z,14.90
2024-04-30T01:14:04.384Z,14.82
2024-04-30T01:16:36.658Z,14.54
2024-04-30T01:19:04.581Z,14.69
2024-04-30T01:21:42.465Z,14.69
2024-04-30T01:24:18.216Z,14.42
2024-04-30T01:26:51.167Z,14.43
2024-04-30T01:29:21.190Z,14.72
2024-04-30T01:31:48.369Z,14.73
2024-04-30T01:34:16.768Z,14.67
2024-04-30T01:36:49.547Z,14.80
2024-04-30T01:39:24.034Z,14.81
2024-04-30T01:41:54.026Z,14.71
2024-04-30T01:44:21.855Z,14.61
2024-04-30T01:46:52.248Z,14.63
2024-04-30T01:49:22.656Z,14.75
2024-04-30T01:51:52.942Z,14.67
2024-04-30T01:54:36.803Z,14.57
2024-04-30T01:57:14.783Z,14.33
2024-04-30T01:59:57.946Z,14.30
2024-04-30T02:02:24.943Z,14.58
2024-04-30T02:04:56.745Z,14.46
2024-04-30T02:07:30.535Z,14.41
2024-04-30T02:10:18.829Z,14.54
2024-04-30T02:12:51.886Z,14.46
2024-04-30T02:15:24.546Z,14.50
2024-04-30T02:17:51.740Z,14.33
2024-04-30T02:20:22.177Z,14.49
2024-04-30T02:22:55.017Z,14.55
2024-04-30T02:25:33.902Z,14.63
2024-04-30T02:28:02.959Z,14.64
2024-04-30T02:30:39.936Z,14.58
2024-04-30T02:33:16.688Z,14.43
2024-04-30T02:35:43.423Z,14.35
2024-04-30T02:38:14.844Z,14.49
2024-04-30T02:40:41.634Z,14.59
2024-04-30T02:43:08.917Z,14.49
2024-04-30T02:45:39.457Z,14.52
2024-04-30T02:48:09.637Z,14.54
2024-04-30T02:50:37.761Z,14.68
2024-04-30T02:53:05.245Z,14.61
2024-04-30T02:55:34.849Z,14.34
2024-04-30T03:00:54.628Z,14.24
2024-04-30T03:03:30.910Z,14.43
2024-04-30T03:06:06.696Z,14.30
2024-04-30T03:08:35.448Z,14.29
2024-04-30T03:11:10.765Z,14.19
2024-04-30T03:13:40.897Z,14.02
2024-04-30T03:16:08.105Z,14.21
2024-04-30T03:18:36.991Z,14.17
2024-04-30T03:21:05.386Z,14.12
2024-04-30T03:23:56.304Z,14.15
2024-04-30T03:26:37.112Z,14.01
2024-04-30T03:29:09.434Z,14.11
2024-04-30T03:31:46.402Z,14.17
2024-04-30T03:34:32.120Z,14.17
2024-04-30T03:37:08.685Z,13.96
2024-04-30T03:39:40.674Z,13.91
2024-04-30T03:42:09.391Z,13.75
2024-04-30T03:44:37.466Z,13.63
2024-04-30T03:47:07.112Z,13.77
2024-04-30T03:49:37.949Z,13.62
2024-04-30T03:52:06.317Z,13.80
2024-04-30T03:54:41.575Z,13.80
2024-04-30T03:57:11.666Z,13.24
2024-04-30T03:59:41.853Z,13.31
2024-04-30T04:02:13.195Z,13.22
2024-04-30T04:04:49.818Z,13.26
2024-04-30T04:07:25.552Z,13.69
2024-04-30T04:09:56.789Z,13.63
2024-04-30T04:15:18.779Z,13.61
2024-04-30T04:17:46.512Z,13.62
2024-04-30T04:20:19.425Z,13.84
2024-04-30T04:22:48.186Z,13.71
2024-04-30T04:25:24.113Z,13.51
2024-04-30T04:28:05.020Z,13.57
2024-04-30T04:30:41.089Z,13.60
2024-04-30T04:33:21.643Z,13.59
2024-04-30T04:35:51.549Z,13.64
2024-04-30T04:38:21.806Z,13.79
2024-04-30T04:41:09.156Z,13.34
2024-04-30T04:43:43.207Z,13.41
2024-04-30T04:46:13.978Z,13.37
2024-04-30T04:48:46.639Z,13.52
2024-04-30T04:51:48.618Z,13.60
2024-04-30T04:57:16.768Z,13.48
2024-04-30T04:59:53.199Z,13.56
2024-04-30T05:02:26.396Z,13.61
2024-04-30T05:04:59.189Z,13.74
2024-04-30T05:07:37.491Z,13.78
2024-04-30T05:10:19.566Z,13.89
2024-04-30T05:12:56.975Z,14.02
2024-04-30T05:15:37.415Z,14.11
2024-04-30T05:18:09.174Z,14.15
2024-04-30T05:20:52.183Z,13.87
2024-04-30T05:23:36.760Z,13.62
2024-04-30T05:26:16.826Z,13.52
2024-04-30T05:28:44.933Z,13.74
2024-04-30T05:31:14.964Z,14.09
2024-04-30T05:33:59.890Z,14.18
2024-04-30T05:36:33.272Z,13.95
2024-04-30T05:39:06.200Z,14.06
2024-04-30T05:41:33.202Z,14.48
2024-04-30T05:44:11.957Z,14.40
2024-04-30T05:46:44.613Z,14.60
2024-04-30T05:52:11.548Z,14.82
2024-04-30T05:54:40.039Z,14.75
2024-04-30T05:57:07.161Z,14.74
2024-04-30T05:59:35.146Z,14.91
2024-04-30T06:02:07.811Z,14.82
2024-04-30T06:04:37.867Z,14.81
2024-04-30T06:07:16.596Z,15.08
2024-04-30T06:09:48.423Z,15.20
2024-04-30T06:12:23.209Z,15.34
2024-04-30T06:14:50.886Z,15.50
2024-04-30T06:17:23.349Z,15.21
2024-04-30T06:19:52.793Z,15.70
2024-04-30T06:22:20.492Z,15.47
2024-04-30T06:24:48.076Z,15.49
2024-04-30T06:27:25.254Z,15.68
2024-04-30T06:29:57.996Z,15.99
2024-04-30T06:32:27.744Z,15.68
2024-04-30T06:34:54.961Z,15.84
2024-04-30T06:37:33.135Z,15.85
2024-04-30T06:42:49.712Z,16.05
2024-04-30T06:45:16.450Z,16.19
2024-04-30T06:47:43.250Z,15.99
2024-04-30T06:50:12.104Z,16.04
2024-04-30T06:52:42.902Z,16.03
2024-04-30T06:55:10.363Z,15.86
2024-04-30T06:57:43.573Z,16.40
2024-04-30T07:00:12.142Z,16.51
2024-04-30T07:02:39.779Z,17.10
2024-04-30T07:05:10.042Z,17.31
2024-04-30T07:07:38.264Z,17.17
2024-04-30T07:10:05.812Z,17.46
2024-04-30T07:12:42.154Z,17.14
2024-04-30T07:17:51.053Z,16.57
2024-04-30T07:20:21.652Z,16.36
2024-04-30T07:22:52.283Z,15.70
2024-04-30T07:25:20.525Z,15.47
2024-04-30T07:27:50.518Z,15.24
2024-04-30T07:30:20.298Z,15.18
2024-04-30T07:32:47.366Z,15.09
2024-04-30T07:35:34.056Z,14.71
2024-04-30T07:38:01.164Z,14.95
2024-04-30T07:40:37.366Z,14.72
2024-04-30T07:43:17.097Z,14.79
2024-04-30T07:45:50.936Z,15.08
2024-04-30T07:51:06.835Z,15.42
2024-04-30T07:53:38.987Z,15.87
2024-04-30T07:56:11.682Z,15.56
2024-04-30T07:58:59.376Z,15.61
2024-04-30T08:01:27.103Z,15.75
2024-04-30T08:04:03.993Z,16.16
2024-04-30T08:06:37.970Z,15.90
2024-04-30T08:09:08.701Z,16.21
2024-04-30T08:11:39.405Z,16.28
2024-04-30T08:14:15.888Z,16.12
2024-04-30T08:17:04.694Z,16.39
2024-04-30T08:19:41.695Z,15.96
2024-04-30T08:22:19.773Z,16.37
2024-04-30T08:24:53.132Z,16.68
2024-04-30T08:27:36.881Z,16.64
2024-04-30T08:30:04.227Z,16.67
2024-04-30T08:32:39.029Z,17.02
2024-04-30T08:35:09.142Z,17.16
2024-04-30T08:37:51.426Z,17.19
2024-04-30T08:40:25.050Z,17.24
2024-04-30T08:42:54.397Z,17.33
2024-04-30T08:45:30.211Z,16.94
2024-04-30T08:48:00.415Z,16.91
2024-04-30T08:50:29.992Z,16.51
2024-04-30T08:53:18.185Z,16.44
2024-04-30T08:55:48.207Z,16.43
2024-04-30T08:58:18.497Z,16.87
2024-04-30T09:00:49.207Z,17.06
2024-04-30T09:03:16.199Z,17.01
2024-04-30T09:05:48.926Z,16.50
2024-04-30T09:08:19.530Z,16.82
2024-04-30T09:10:50.571Z,16.88
2024-04-30T09:13:17.736Z,16.27
2024-04-30T09:15:45.973Z,16.64
2024-04-30T09:18:14.050Z,16.94
2024-04-30T09:20:47.581Z,17.06
2024-04-30T09:23:15.881Z,16.81
2024-04-30T09:26:01.731Z,16.56
2024-04-30T09:28:37.300Z,16.53
2024-04-30T09:31:13.353Z,16.53
2024-04-30T09:33:40.630Z,16.98
2024-04-30T09:36:17.171Z,17.34
2024-04-30T09:38:44.109Z,16.95
2024-04-30T09:41:10.884Z,17.31
2024-04-30T09:43:37.961Z,17.65
2024-04-30T09:46:13.569Z,17.48
2024-04-30T09:48:40.359Z,17.61
2024-04-30T09:51:10.064Z,17.80
2024-04-30T09:53:46.240Z,17.60
2024-04-30T09:56:15.454Z,17.41
2024-04-30T09:58:43.744Z,17.67
2024-04-30T10:04:02.983Z,17.63
2024-04-30T10:06:32.899Z,17.33
2024-04-30T10:09:03.093Z,16.88
2024-04-30T10:11:40.427Z,17.11
2024-04-30T10:17:11.201Z,17.43
2024-04-30T10:19:51.710Z,17.47
2024-04-30T10:22:19.915Z,17.03
2024-04-30T10:25:02.902Z,17.49
2024-04-30T10:27:51.861Z,17.36
2024-04-30T10:33:31.943Z,17.75
2024-04-30T10:36:04.686Z,17.88
2024-04-30T10:41:39.172Z,17.86
2024-04-30T10:47:09.403Z,17.98
2024-04-30T10:49:36.503Z,17.94
2024-04-30T10:52:06.435Z,18.18
2024-04-30T10:54:43.470Z,17.54
2024-04-30T10:57:11.048Z,18.19
2024-04-30T10:59:50.798Z,17.95
2024-04-30T11:02:20.252Z,17.56
2024-04-30T11:04:49.390Z,17.68
2024-04-30T11:07:19.773Z,17.44
2024-04-30T11:09:46.971Z,17.78
2024-04-30T11:12:17.100Z,17.66
2024-04-30T11:14:50.199Z,17.45
2024-04-30T11:22:53.897Z,16.98
2024-04-30T11:25:47.278Z,17.22
2024-04-30T11:28:25.489Z,16.91
2024-04-30T11:33:40.428Z,16.23
2024-04-30T11:36:08.059Z,16.46
2024-04-30T11:38:42.043Z,16.68
2024-04-30T11:41:21.343Z,17.16
2024-04-30T11:43:56.239Z,17.53
2024-04-30T11:46:38.791Z,17.66
2024-04-30T11:49:10.082Z,17.03
2024-04-30T11:51:49.889Z,16.87
2024-04-30T11:54:32.547Z,17.20
2024-04-30T11:57:03.052Z,17.47
2024-04-30T11:59:34.392Z,17.95
2024-04-30T12:02:15.975Z,17.83
2024-04-30T12:04:47.312Z,18.23
2024-04-30T12:07:23.771Z,18.38
2024-04-30T12:09:50.943Z,18.62
2024-04-30T12:12:33.978Z,18.82
2024-04-30T12:15:27.512Z,18.77
2024-04-30T12:21:01.102Z,18.73
2024-04-30T12:23:36.743Z,18.94
2024-04-30T12:26:15.525Z,19.11
2024-04-30T12:28:46.820Z,19.10
2024-04-30T12:31:17.058Z,19.04
2024-04-30T12:33:46.851Z,19.09
2024-04-30T12:36:13.735Z,19.10
2024-04-30T12:38:42.947Z,19.15
2024-04-30T12:41:09.751Z,18.75
2024-04-30T12:46:22.235Z,18.04
2024-04-30T12:48:59.004Z,17.92
2024-04-30T12:51:26.126Z,17.56
2024-04-30T12:56:48.926Z,17.61
2024-04-30T13:30:21.035Z,17.57
2024-04-30T13:33:24.470Z,17.84
2024-04-30T13:41:54.089Z,18.31
2024-04-30T13:44:38.683Z,18.39
2024-04-30T13:49:53.418Z,18.98
2024-04-30T13:52:24.346Z,19.08
2024-04-30T13:55:11.057Z,19.07
2024-04-30T14:00:34.517Z,19.37
2024-04-30T14:03:22.106Z,19.43
2024-04-30T14:14:35.503Z,17.75
2024-04-30T14:23:37.620Z,17.37
2024-04-30T14:29:26.634Z,17.30
2024-04-30T14:40:43.276Z,16.43
2024-04-30T14:43:25.387Z,16.55
2024-04-30T14:55:25.714Z,17.23
2024-04-30T15:01:12.239Z,17.26
2024-04-30T15:04:10.750Z,17.01
2024-04-30T15:09:57.594Z,16.55
2024-04-30T15:18:57.432Z,17.19
2024-04-30T15:24:32.481Z,17.58
2024-04-30T15:39:10.978Z,18.21
2024-04-30T15:53:57.810Z,18.08
2024-04-30T15:56:36.529Z,18.17
2024-04-30T15:59:27.110Z,18.07
2024-04-30T16:04:53.249Z,17.78
2024-04-30T16:07:35.608Z,18.17
2024-04-30T16:10:33.200Z,18.25
2024-04-30T16:13:18.260Z,17.78
2024-04-30T16:16:18.505Z,17.66
2024-04-30T16:18:49.808Z,17.83
2024-04-30T16:21:27.592Z,17.93
2024-04-30T16:24:08.168Z,18.17
2024-04-30T16:26:39.164Z,18.28
2024-04-30T16:29:08.395Z,18.27
2024-04-30T16:34:31.167Z,18.07
2024-04-30T16:36:59.623Z,18.33
2024-04-30T16:39:36.565Z,18.13
2024-04-30T16:44:58.809Z,18.37
2024-04-30T16:47:33.835Z,18.11
2024-04-30T16:50:07.123Z,18.19
2024-04-30T16:52:38.470Z,18.01
2024-04-30T16:55:06.005Z,18.00
2024-04-30T16:57:36.240Z,18.16
2024-04-30T17:00:05.867Z,18.18
2024-04-30T17:02:37.431Z,17.98
2024-04-30T17:05:16.353Z,18.10
2024-04-30T17:07:47.096Z,18.24
2024-04-30T17:10:38.029Z,18.20
2024-04-30T17:13:05.365Z,18.08
2024-04-30T17:15:35.484Z,18.08
2024-04-30T17:18:02.758Z,18.27
2024-04-30T17:20:36.999Z,18.39
2024-04-30T17:23:08.290Z,18.48
2024-04-30T17:25:42.122Z,18.56
2024-04-30T17:28:09.474Z,18.61
2024-04-30T17:30:38.018Z,18.63
2024-04-30T17:33:05.947Z,18.60
2024-04-30T17:35:34.371Z,18.49
2024-04-30T17:38:01.389Z,18.58
2024-04-30T17:40:28.336Z,18.62
2024-04-30T17:42:56.383Z,18.62
2024-04-30T17:45:24.369Z,18.57
2024-04-30T17:47:51.698Z,18.69
2024-04-30T17:50:18.516Z,18.75
2024-04-30T17:52:51.609Z,18.90
2024-04-30T17:55:19.622Z,18.97
2024-04-30T17:57:47.940Z,18.96
2024-04-30T18:00:14.798Z,18.93
2024-04-30T18:02:41.680Z,18.96
2024-04-30T18:05:08.908Z,18.70
2024-04-30T18:07:38.003Z,18.88
2024-04-30T18:10:15.595Z,18.96
2024-04-30T18:12:47.386Z,18.97
2024-04-30T18:15:14.161Z,19.00
2024-04-30T18:17:44.137Z,19.00
2024-04-30T18:20:15.391Z,18.97
2024-04-30T18:22:45.460Z,18.49
2024-04-30T18:25:12.382Z,18.55
2024-04-30T18:27:39.335Z,18.74
2024-04-30T18:30:06.291Z,18.71
2024-04-30T18:32:34.366Z,18.69
2024-04-30T18:35:07.923Z,18.50
2024-04-30T18:37:36.129Z,18.24
2024-04-30T18:40:14.558Z,18.30
2024-04-30T18:42:49.736Z,18.02
2024-04-30T18:45:19.590Z,18.06
2024-04-30T18:47:54.131Z,18.02
2024-04-30T18:50:22.183Z,17.95
2024-04-30T18:52:58.605Z,18.01
2024-04-30T18:55:36.186Z,17.89
2024-04-30T18:58:03.007Z,17.76
2024-04-30T19:00:32.475Z,17.81
2024-04-30T19:03:03.494Z,17.63
2024-04-30T19:05:40.916Z,17.66
2024-04-30T19:08:20.402Z,17.76
2024-04-30T19:10:47.517Z,17.90
2024-04-30T19:13:21.332Z,17.56
2024-04-30T19:15:57.724Z,17.77
2024-04-30T19:18:26.574Z,17.82
2024-04-30T19:20:57.971Z,17.95
2024-04-30T19:23:30.376Z,17.91
2024-04-30T19:25:58.590Z,17.43
2024-04-30T19:28:46.055Z,17.51
2024-04-30T19:31:17.344Z,17.49
2024-04-30T19:36:45.575Z,17.61
2024-04-30T19:39:31.422Z,17.34
2024-04-30T19:42:03.660Z,17.26
2024-04-30T19:44:32.345Z,17.41
2024-04-30T19:47:05.074Z,17.43
2024-04-30T19:49:38.007Z,17.37
2024-04-30T19:52:07.429Z,17.27
2024-04-30T19:54:36.970Z,17.44
2024-04-30T19:57:06.733Z,17.30
2024-04-30T19:59:47.626Z,17.15
2024-04-30T20:02:16.636Z,17.19
2024-04-30T20:07:31.253Z,17.03
2024-04-30T20:10:10.123Z,17.06
2024-04-30T20:12:41.076Z,16.99
2024-04-30T20:18:04.910Z,17.07
2024-04-30T20:20:41.617Z,17.08
2024-04-30T20:23:20.829Z,17.19
2024-04-30T20:25:49.553Z,17.15
2024-04-30T20:28:17.696Z,17.22
2024-04-30T20:30:51.902Z,16.80
2024-04-30T20:33:35.515Z,17.15
2024-04-30T20:36:26.585Z,17.37
2024-04-30T20:39:07.433Z,17.41
2024-04-30T20:41:38.778Z,17.30
2024-04-30T20:44:07.306Z,17.29
2024-04-30T20:46:40.380Z,17.29
2024-04-30T20:49:17.464Z,17.34
2024-04-30T20:51:46.613Z,17.35
2024-04-30T20:54:31.115Z,17.40
2024-04-30T20:57:13.739Z,17.27
2024-04-30T20:59:44.262Z,16.98
2024-04-30T21:02:16.955Z,16.85
2024-04-30T21:04:49.061Z,16.72
2024-04-30T21:07:20.675Z,16.79
2024-04-30T21:09:48.297Z,16.75
2024-04-30T21:12:23.849Z,16.71
2024-04-30T21:15:07.010Z,16.62
2024-04-30T21:17:36.170Z,16.65
2024-04-30T21:20:14.904Z,16.55
2024-04-30T21:22:45.145Z,16.63
2024-04-30T21:25:26.116Z,16.61
2024-04-30T21:27:58.889Z,16.40
2024-04-30T21:30:26.908Z,16.46
2024-04-30T21:32:54.860Z,16.31
2024-04-30T21:35:40.575Z,16.27
2024-04-30T21:38:14.188Z,16.51
2024-04-30T21:40:54.811Z,16.52
2024-04-30T21:43:28.566Z,16.31
2024-04-30T21:45:56.534Z,16.50
2024-04-30T21:48:36.485Z,16.48
2024-04-30T21:51:15.921Z,16.56
2024-04-30T21:54:00.411Z,16.45
2024-04-30T21:56:45.740Z,16.08
2024-04-30T21:59:13.062Z,16.17
2024-04-30T22:01:49.107Z,16.01
2024-04-30T22:04:22.076Z,16.18
2024-04-30T22:07:01.195Z,16.24
2024-04-30T22:14:59.709Z,16.14
2024-04-30T22:17:29.153Z,15.81
2024-04-30T22:22:51.477Z,15.80
2024-04-30T22:25:24.029Z,16.20
2024-04-30T22:28:03.896Z,16.30
2024-04-30T22:30:34.320Z,16.32
2024-04-30T22:33:06.596Z,16.22
2024-04-30T22:35:44.641Z,16.40
2024-04-30T22:38:15.970Z,16.37
2024-04-30T22:40:42.652Z,16.14
2024-04-30T22:43:23.307Z,16.17
2024-04-30T22:45:51.426Z,15.98
2024-04-30T22:48:21.893Z,15.90
2024-04-30T22:50:54.428Z,16.12
2024-04-30T22:53:35.011Z,16.17
2024-04-30T22:56:09.466Z,16.20
2024-04-30T22:58:41.712Z,15.98
2024-04-30T23:01:10.223Z,16.09
2024-04-30T23:03:45.366Z,16.12
2024-04-30T23:06:13.880Z,15.75
2024-04-30T23:08:52.586Z,15.71
2024-04-30T23:11:23.706Z,15.92
2024-04-30T23:14:18.507Z,15.82
2024-04-30T23:16:55.986Z,15.92
2024-04-30T23:19:23.531Z,16.05
2024-04-30T23:24:49.683Z,15.96
2024-04-30T23:27:25.760Z,15.68
2024-04-30T23:30:13.842Z,15.15
2024-04-30T23:32:53.953Z,15.44
2024-04-30T23:35:28.264Z,15.82
2024-04-30T23:38:13.596Z,15.76
2024-04-30T23:40:46.079Z,15.41
2024-04-30T23:43:17.163Z,15.60
2024-04-30T23:45:47.438Z,15.90
2024-04-30T23:48:19.154Z,15.96
2024-04-30T23:50:57.859Z,15.92
2024-04-30T23:53:36.213Z,15.71
2024-04-30T23:56:07.073Z,15.67
